sensor_id;sensor_type;location;lat;lon;timestamp;P1;durP1;ratioP1;P2;durP2;ratioP2
24637;SDS011;12773;50.162;8.548;2023-04-02T00:01:42;4.53;;;3.20;;
24637;SDS011;12773;50.162;8.548;2023-04-02T00:04:30;4.03;;;3.12;;
24637;SDS011;12773;50.162;8.548;2023-04-02T00:07:26;5.72;;;3.95;;
24637;SDS011;12773;50.162;8.548;2023-04-02T00:10:34;6.33;;;3.80;;
24637;SDS011;12773;50.162;8.548;2023-04-02T00:13:38;6.30;;;3.05;;
24637;SDS011;12773;50.162;8.548;2023-04-02T00:16:26;4.85;;;3.08;;
24637;SDS011;12773;50.162;8.548;2023-04-02T00:19:19;5.37;;;2.95;;
24637;SDS011;12773;50.162;8.548;2023-04-02T00:22:21;5.08;;;3.10;;
24637;SDS011;12773;50.162;8.548;2023-04-02T00:25:11;4.00;;;3.05;;
24637;SDS011;12773;50.162;8.548;2023-04-02T00:27:59;5.00;;;3.17;;
24637;SDS011;12773;50.162;8.548;2023-04-02T00:30:55;4.95;;;3.05;;
24637;SDS011;12773;50.162;8.548;2023-04-02T00:33:45;5.10;;;3.00;;
24637;SDS011;12773;50.162;8.548;2023-04-02T00:36:33;4.05;;;3.22;;
24637;SDS011;12773;50.162;8.548;2023-04-02T00:39:25;5.22;;;3.35;;
24637;SDS011;12773;50.162;8.548;2023-04-02T00:42:18;6.45;;;3.00;;
24637;SDS011;12773;50.162;8.548;2023-04-02T00:45:12;3.77;;;3.00;;
24637;SDS011;12773;50.162;8.548;2023-04-02T00:47:58;4.22;;;3.27;;
24637;SDS011;12773;50.162;8.548;2023-04-02T00:50:47;7.12;;;3.35;;
24637;SDS011;12773;50.162;8.548;2023-04-02T00:53:36;5.78;;;3.12;;
24637;SDS011;12773;50.162;8.548;2023-04-02T00:56:25;4.00;;;2.80;;
24637;SDS011;12773;50.162;8.548;2023-04-02T00:59:31;5.17;;;3.50;;
24637;SDS011;12773;50.162;8.548;2023-04-02T01:02:25;4.08;;;3.30;;
24637;SDS011;12773;50.162;8.548;2023-04-02T01:08:14;4.67;;;3.22;;
24637;SDS011;12773;50.162;8.548;2023-04-02T01:11:03;4.07;;;3.20;;
24637;SDS011;12773;50.162;8.548;2023-04-02T01:16:57;6.78;;;3.00;;
24637;SDS011;12773;50.162;8.548;2023-04-02T01:23:19;4.25;;;3.05;;
24637;SDS011;12773;50.162;8.548;2023-04-02T01:32:01;4.33;;;2.87;;
24637;SDS011;12773;50.162;8.548;2023-04-02T01:34:51;3.55;;;2.62;;
24637;SDS011;12773;50.162;8.548;2023-04-02T01:40:37;3.42;;;2.33;;
24637;SDS011;12773;50.162;8.548;2023-04-02T01:43:45;4.70;;;2.30;;
24637;SDS011;12773;50.162;8.548;2023-04-02T01:46:39;4.08;;;2.60;;
24637;SDS011;12773;50.162;8.548;2023-04-02T01:49:29;5.17;;;2.47;;
24637;SDS011;12773;50.162;8.548;2023-04-02T01:52:18;2.12;;;1.80;;
24637;SDS011;12773;50.162;8.548;2023-04-02T01:55:07;4.75;;;2.22;;
24637;SDS011;12773;50.162;8.548;2023-04-02T01:57:57;5.70;;;2.05;;
24637;SDS011;12773;50.162;8.548;2023-04-02T02:00:48;4.05;;;2.10;;
24637;SDS011;12773;50.162;8.548;2023-04-02T02:03:42;2.77;;;2.02;;
24637;SDS011;12773;50.162;8.548;2023-04-02T02:06:30;2.45;;;2.12;;
24637;SDS011;12773;50.162;8.548;2023-04-02T02:09:23;4.55;;;2.30;;
24637;SDS011;12773;50.162;8.548;2023-04-02T02:12:10;3.65;;;2.17;;
24637;SDS011;12773;50.162;8.548;2023-04-02T02:14:59;3.30;;;2.25;;
24637;SDS011;12773;50.162;8.548;2023-04-02T02:17:46;3.27;;;2.17;;
24637;SDS011;12773;50.162;8.548;2023-04-02T02:20:35;3.70;;;2.05;;
24637;SDS011;12773;50.162;8.548;2023-04-02T02:23:23;5.30;;;2.47;;
24637;SDS011;12773;50.162;8.548;2023-04-02T02:26:12;3.70;;;2.30;;
24637;SDS011;12773;50.162;8.548;2023-04-02T02:29:00;7.60;;;2.70;;
24637;SDS011;12773;50.162;8.548;2023-04-02T02:31:51;4.75;;;2.83;;
24637;SDS011;12773;50.162;8.548;2023-04-02T02:34:48;4.17;;;3.00;;
24637;SDS011;12773;50.162;8.548;2023-04-02T02:37:42;5.33;;;2.80;;
24637;SDS011;12773;50.162;8.548;2023-04-02T02:40:37;5.05;;;3.40;;
24637;SDS011;12773;50.162;8.548;2023-04-02T02:43:22;6.55;;;2.80;;
24637;SDS011;12773;50.162;8.548;2023-04-02T02:46:10;4.72;;;3.35;;
24637;SDS011;12773;50.162;8.548;2023-04-02T02:49:00;4.47;;;3.00;;
24637;SDS011;12773;50.162;8.548;2023-04-02T02:52:00;5.03;;;3.45;;
24637;SDS011;12773;50.162;8.548;2023-04-02T02:54:56;4.12;;;3.25;;
24637;SDS011;12773;50.162;8.548;2023-04-02T02:57:53;5.60;;;4.20;;
24637;SDS011;12773;50.162;8.548;2023-04-02T03:00:43;6.05;;;4.22;;
24637;SDS011;12773;50.162;8.548;2023-04-02T03:03:31;5.90;;;3.75;;
24637;SDS011;12773;50.162;8.548;2023-04-02T03:06:19;6.25;;;4.12;;
24637;SDS011;12773;50.162;8.548;2023-04-02T03:12:27;8.05;;;3.67;;
24637;SDS011;12773;50.162;8.548;2023-04-02T03:16:01;5.83;;;3.55;;
24637;SDS011;12773;50.162;8.548;2023-04-02T03:18:30;7.45;;;3.72;;
24637;SDS011;12773;50.162;8.548;2023-04-02T03:21:42;5.55;;;3.47;;
24637;SDS011;12773;50.162;8.548;2023-04-02T03:24:39;5.85;;;3.90;;
24637;SDS011;12773;50.162;8.548;2023-04-02T03:27:36;6.62;;;3.98;;
24637;SDS011;12773;50.162;8.548;2023-04-02T03:30:30;6.17;;;3.50;;
24637;SDS011;12773;50.162;8.548;2023-04-02T03:33:38;5.28;;;3.92;;
24637;SDS011;12773;50.162;8.548;2023-04-02T03:36:29;5.65;;;3.87;;
24637;SDS011;12773;50.162;8.548;2023-04-02T03:39:19;7.30;;;4.20;;
24637;SDS011;12773;50.162;8.548;2023-04-02T03:42:12;4.65;;;3.67;;
24637;SDS011;12773;50.162;8.548;2023-04-02T03:45:08;5.58;;;3.80;;
24637;SDS011;12773;50.162;8.548;2023-04-02T03:47:59;5.47;;;3.90;;
24637;SDS011;12773;50.162;8.548;2023-04-02T03:50:54;4.90;;;3.80;;
24637;SDS011;12773;50.162;8.548;2023-04-02T03:53:47;6.28;;;3.83;;
24637;SDS011;12773;50.162;8.548;2023-04-02T03:56:35;6.40;;;3.87;;
24637;SDS011;12773;50.162;8.548;2023-04-02T03:59:28;5.30;;;3.77;;
24637;SDS011;12773;50.162;8.548;2023-04-02T04:02:32;5.40;;;4.03;;
24637;SDS011;12773;50.162;8.548;2023-04-02T04:05:23;6.60;;;3.80;;
24637;SDS011;12773;50.162;8.548;2023-04-02T04:08:16;6.20;;;3.58;;
24637;SDS011;12773;50.162;8.548;2023-04-02T04:11:06;5.03;;;3.27;;
24637;SDS011;12773;50.162;8.548;2023-04-02T04:13:58;6.17;;;3.92;;
24637;SDS011;12773;50.162;8.548;2023-04-02T04:17:09;6.87;;;3.45;;
24637;SDS011;12773;50.162;8.548;2023-04-02T04:19:59;4.55;;;3.70;;
24637;SDS011;12773;50.162;8.548;2023-04-02T04:22:50;9.15;;;4.50;;
24637;SDS011;12773;50.162;8.548;2023-04-02T04:25:42;6.40;;;4.37;;
24637;SDS011;12773;50.162;8.548;2023-04-02T04:28:32;5.35;;;3.98;;
24637;SDS011;12773;50.162;8.548;2023-04-02T04:31:26;5.80;;;4.50;;
24637;SDS011;12773;50.162;8.548;2023-04-02T04:34:35;5.97;;;4.10;;
24637;SDS011;12773;50.162;8.548;2023-04-02T04:37:25;6.05;;;3.90;;
24637;SDS011;12773;50.162;8.548;2023-04-02T04:40:19;6.83;;;3.92;;
24637;SDS011;12773;50.162;8.548;2023-04-02T04:43:11;7.95;;;4.50;;
24637;SDS011;12773;50.162;8.548;2023-04-02T04:46:07;9.58;;;5.45;;
24637;SDS011;12773;50.162;8.548;2023-04-02T04:49:01;8.80;;;5.40;;
24637;SDS011;12773;50.162;8.548;2023-04-02T04:52:09;11.60;;;5.83;;
24637;SDS011;12773;50.162;8.548;2023-04-02T04:55:17;11.43;;;5.83;;
24637;SDS011;12773;50.162;8.548;2023-04-02T04:58:16;9.13;;;4.90;;
24637;SDS011;12773;50.162;8.548;2023-04-02T05:01:40;6.47;;;4.37;;
24637;SDS011;12773;50.162;8.548;2023-04-02T05:04:35;9.63;;;5.62;;
24637;SDS011;12773;50.162;8.548;2023-04-02T05:07:25;9.10;;;5.62;;
24637;SDS011;12773;50.162;8.548;2023-04-02T05:10:16;6.78;;;4.67;;
24637;SDS011;12773;50.162;8.548;2023-04-02T05:13:08;8.50;;;5.40;;
24637;SDS011;12773;50.162;8.548;2023-04-02T05:16:15;11.70;;;7.22;;
24637;SDS011;12773;50.162;8.548;2023-04-02T05:19:06;20.57;;;6.85;;
24637;SDS011;12773;50.162;8.548;2023-04-02T05:25:10;9.30;;;6.25;;
24637;SDS011;12773;50.162;8.548;2023-04-02T05:28:13;11.28;;;6.42;;
24637;SDS011;12773;50.162;8.548;2023-04-02T05:34:29;9.45;;;5.22;;
24637;SDS011;12773;50.162;8.548;2023-04-02T05:37:15;6.67;;;4.60;;
24637;SDS011;12773;50.162;8.548;2023-04-02T05:40:09;4.37;;;3.35;;
24637;SDS011;12773;50.162;8.548;2023-04-02T05:43:01;3.95;;;3.17;;
24637;SDS011;12773;50.162;8.548;2023-04-02T05:45:54;4.83;;;2.58;;
24637;SDS011;12773;50.162;8.548;2023-04-02T05:48:45;4.58;;;2.70;;
24637;SDS011;12773;50.162;8.548;2023-04-02T05:51:38;4.08;;;2.90;;
24637;SDS011;12773;50.162;8.548;2023-04-02T05:54:33;5.42;;;3.77;;
24637;SDS011;12773;50.162;8.548;2023-04-02T05:57:30;9.23;;;4.10;;
24637;SDS011;12773;50.162;8.548;2023-04-02T06:00:42;8.78;;;4.25;;
24637;SDS011;12773;50.162;8.548;2023-04-02T06:03:23;7.70;;;5.03;;
24637;SDS011;12773;50.162;8.548;2023-04-02T06:06:18;11.40;;;6.03;;
24637;SDS011;12773;50.162;8.548;2023-04-02T06:09:23;6.40;;;2.17;;
24637;SDS011;12773;50.162;8.548;2023-04-02T06:12:24;2.65;;;1.00;;
24637;SDS011;12773;50.162;8.548;2023-04-02T06:15:16;1.02;;;0.93;;
24637;SDS011;12773;50.162;8.548;2023-04-02T06:18:16;1.52;;;1.02;;
24637;SDS011;12773;50.162;8.548;2023-04-02T06:21:05;2.58;;;0.90;;
24637;SDS011;12773;50.162;8.548;2023-04-02T06:23:55;0.82;;;0.80;;
24637;SDS011;12773;50.162;8.548;2023-04-02T06:26:52;1.05;;;0.70;;
24637;SDS011;12773;50.162;8.548;2023-04-02T06:29:42;0.65;;;0.57;;
24637;SDS011;12773;50.162;8.548;2023-04-02T06:32:32;0.42;;;0.42;;
24637;SDS011;12773;50.162;8.548;2023-04-02T06:35:19;1.25;;;0.72;;
24637;SDS011;12773;50.162;8.548;2023-04-02T06:38:12;0.93;;;0.82;;
24637;SDS011;12773;50.162;8.548;2023-04-02T06:40:58;2.12;;;0.90;;
24637;SDS011;12773;50.162;8.548;2023-04-02T06:43:56;1.10;;;0.65;;
24637;SDS011;12773;50.162;8.548;2023-04-02T06:49:38;2.33;;;0.82;;
24637;SDS011;12773;50.162;8.548;2023-04-02T06:52:35;0.85;;;0.68;;
24637;SDS011;12773;50.162;8.548;2023-04-02T06:58:36;0.80;;;0.60;;
24637;SDS011;12773;50.162;8.548;2023-04-02T07:01:29;2.02;;;0.60;;
24637;SDS011;12773;50.162;8.548;2023-04-02T07:04:14;0.85;;;0.60;;
24637;SDS011;12773;50.162;8.548;2023-04-02T07:07:01;1.70;;;0.50;;
24637;SDS011;12773;50.162;8.548;2023-04-02T07:09:49;0.55;;;0.55;;
24637;SDS011;12773;50.162;8.548;2023-04-02T07:12:36;2.05;;;0.60;;
24637;SDS011;12773;50.162;8.548;2023-04-02T07:15:24;0.80;;;0.70;;
24637;SDS011;12773;50.162;8.548;2023-04-02T07:23:56;0.50;;;0.50;;
24637;SDS011;12773;50.162;8.548;2023-04-02T07:26:43;0.70;;;0.60;;
24637;SDS011;12773;50.162;8.548;2023-04-02T07:29:32;1.00;;;0.50;;
24637;SDS011;12773;50.162;8.548;2023-04-02T07:32:19;0.80;;;0.62;;
24637;SDS011;12773;50.162;8.548;2023-04-02T07:35:07;0.70;;;0.55;;
24637;SDS011;12773;50.162;8.548;2023-04-02T07:37:55;0.60;;;0.60;;
24637;SDS011;12773;50.162;8.548;2023-04-02T07:40:43;0.70;;;0.50;;
24637;SDS011;12773;50.162;8.548;2023-04-02T07:43:30;0.60;;;0.60;;
24637;SDS011;12773;50.162;8.548;2023-04-02T07:46:18;1.00;;;0.57;;
24637;SDS011;12773;50.162;8.548;2023-04-02T07:49:06;2.55;;;0.70;;
24637;SDS011;12773;50.162;8.548;2023-04-02T07:51:53;0.95;;;0.70;;
24637;SDS011;12773;50.162;8.548;2023-04-02T07:54:40;1.20;;;0.60;;
24637;SDS011;12773;50.162;8.548;2023-04-02T07:57:28;0.50;;;0.50;;
24637;SDS011;12773;50.162;8.548;2023-04-02T08:00:16;0.60;;;0.60;;
24637;SDS011;12773;50.162;8.548;2023-04-02T08:03:04;3.02;;;0.62;;
24637;SDS011;12773;50.162;8.548;2023-04-02T08:05:57;0.75;;;0.60;;
24637;SDS011;12773;50.162;8.548;2023-04-02T08:08:41;0.82;;;0.50;;
24637;SDS011;12773;50.162;8.548;2023-04-02T08:11:29;0.57;;;0.55;;
24637;SDS011;12773;50.162;8.548;2023-04-02T08:14:16;0.75;;;0.60;;
24637;SDS011;12773;50.162;8.548;2023-04-02T08:17:04;2.55;;;0.57;;
24637;SDS011;12773;50.162;8.548;2023-04-02T08:19:51;1.20;;;0.65;;
24637;SDS011;12773;50.162;8.548;2023-04-02T08:22:41;0.62;;;0.60;;
24637;SDS011;12773;50.162;8.548;2023-04-02T08:25:28;0.50;;;0.50;;
24637;SDS011;12773;50.162;8.548;2023-04-02T08:28:15;0.60;;;0.60;;
24637;SDS011;12773;50.162;8.548;2023-04-02T08:31:03;0.82;;;0.62;;
24637;SDS011;12773;50.162;8.548;2023-04-02T08:33:52;0.40;;;0.40;;
24637;SDS011;12773;50.162;8.548;2023-04-02T08:36:42;0.62;;;0.53;;
24637;SDS011;12773;50.162;8.548;2023-04-02T08:39:30;0.90;;;0.57;;
24637;SDS011;12773;50.162;8.548;2023-04-02T08:42:28;0.50;;;0.50;;
24637;SDS011;12773;50.162;8.548;2023-04-02T08:45:22;0.60;;;0.50;;
24637;SDS011;12773;50.162;8.548;2023-04-02T08:48:24;0.70;;;0.70;;
24637;SDS011;12773;50.162;8.548;2023-04-02T08:51:25;0.60;;;0.60;;
24637;SDS011;12773;50.162;8.548;2023-04-02T08:54:21;2.02;;;0.50;;
24637;SDS011;12773;50.162;8.548;2023-04-02T08:57:28;0.60;;;0.60;;
24637;SDS011;12773;50.162;8.548;2023-04-02T09:00:25;0.72;;;0.72;;
24637;SDS011;12773;50.162;8.548;2023-04-02T09:03:26;6.72;;;0.70;;
24637;SDS011;12773;50.162;8.548;2023-04-02T09:06:17;0.80;;;0.70;;
24637;SDS011;12773;50.162;8.548;2023-04-02T09:09:05;0.70;;;0.62;;
24637;SDS011;12773;50.162;8.548;2023-04-02T09:11:57;1.00;;;0.90;;
24637;SDS011;12773;50.162;8.548;2023-04-02T09:17:46;1.35;;;1.00;;
24637;SDS011;12773;50.162;8.548;2023-04-02T09:20:35;1.05;;;0.90;;
24637;SDS011;12773;50.162;8.548;2023-04-02T09:23:23;1.25;;;1.15;;
24637;SDS011;12773;50.162;8.548;2023-04-02T09:26:32;1.22;;;1.10;;
24637;SDS011;12773;50.162;8.548;2023-04-02T09:35:20;2.27;;;1.30;;
24637;SDS011;12773;50.162;8.548;2023-04-02T09:38:27;1.55;;;1.40;;
24637;SDS011;12773;50.162;8.548;2023-04-02T09:41:18;2.93;;;1.57;;
24637;SDS011;12773;50.162;8.548;2023-04-02T09:44:10;1.40;;;1.15;;
24637;SDS011;12773;50.162;8.548;2023-04-02T09:47:01;1.82;;;1.40;;
24637;SDS011;12773;50.162;8.548;2023-04-02T09:49:50;2.02;;;1.40;;
24637;SDS011;12773;50.162;8.548;2023-04-02T09:52:37;2.00;;;1.32;;
24637;SDS011;12773;50.162;8.548;2023-04-02T09:55:28;1.45;;;1.30;;
24637;SDS011;12773;50.162;8.548;2023-04-02T09:58:16;1.35;;;1.12;;
24637;SDS011;12773;50.162;8.548;2023-04-02T10:01:04;4.60;;;1.47;;
24637;SDS011;12773;50.162;8.548;2023-04-02T10:03:52;2.30;;;1.37;;
24637;SDS011;12773;50.162;8.548;2023-04-02T10:06:47;1.55;;;1.30;;
24637;SDS011;12773;50.162;8.548;2023-04-02T10:09:35;1.82;;;1.40;;
24637;SDS011;12773;50.162;8.548;2023-04-02T10:12:23;2.40;;;1.42;;
24637;SDS011;12773;50.162;8.548;2023-04-02T10:15:16;1.70;;;1.47;;
24637;SDS011;12773;50.162;8.548;2023-04-02T10:18:07;2.15;;;1.10;;
24637;SDS011;12773;50.162;8.548;2023-04-02T10:20:55;2.12;;;1.45;;
24637;SDS011;12773;50.162;8.548;2023-04-02T10:23:46;1.77;;;1.20;;
24637;SDS011;12773;50.162;8.548;2023-04-02T10:26:37;1.75;;;1.50;;
24637;SDS011;12773;50.162;8.548;2023-04-02T10:32:31;1.92;;;1.30;;
24637;SDS011;12773;50.162;8.548;2023-04-02T10:35:37;1.50;;;1.22;;
24637;SDS011;12773;50.162;8.548;2023-04-02T10:44:32;3.40;;;1.12;;
24637;SDS011;12773;50.162;8.548;2023-04-02T10:47:28;4.47;;;1.40;;
24637;SDS011;12773;50.162;8.548;2023-04-02T10:53:16;2.22;;;1.12;;
24637;SDS011;12773;50.162;8.548;2023-04-02T10:56:06;3.10;;;1.32;;
24637;SDS011;12773;50.162;8.548;2023-04-02T10:58:58;1.67;;;1.27;;
24637;SDS011;12773;50.162;8.548;2023-04-02T11:02:05;1.35;;;1.17;;
24637;SDS011;12773;50.162;8.548;2023-04-02T11:04:53;1.65;;;1.32;;
24637;SDS011;12773;50.162;8.548;2023-04-02T11:08:00;1.60;;;1.20;;
24637;SDS011;12773;50.162;8.548;2023-04-02T11:10:51;2.77;;;1.10;;
24637;SDS011;12773;50.162;8.548;2023-04-02T11:13:36;2.92;;;1.27;;
24637;SDS011;12773;50.162;8.548;2023-04-02T11:16:29;1.95;;;1.40;;
24637;SDS011;12773;50.162;8.548;2023-04-02T11:22:18;1.40;;;1.30;;
24637;SDS011;12773;50.162;8.548;2023-04-02T11:25:13;2.40;;;1.57;;
24637;SDS011;12773;50.162;8.548;2023-04-02T11:28:11;1.52;;;1.40;;
24637;SDS011;12773;50.162;8.548;2023-04-02T11:30:47;1.70;;;1.30;;
24637;SDS011;12773;50.162;8.548;2023-04-02T11:33:43;3.25;;;1.40;;
24637;SDS011;12773;50.162;8.548;2023-04-02T11:39:52;2.37;;;1.20;;
24637;SDS011;12773;50.162;8.548;2023-04-02T11:42:49;2.75;;;1.60;;
24637;SDS011;12773;50.162;8.548;2023-04-02T11:48:38;1.32;;;1.22;;
24637;SDS011;12773;50.162;8.548;2023-04-02T11:54:22;1.90;;;1.60;;
24637;SDS011;12773;50.162;8.548;2023-04-02T11:57:25;2.15;;;1.70;;
24637;SDS011;12773;50.162;8.548;2023-04-02T12:00:20;1.87;;;1.40;;
24637;SDS011;12773;50.162;8.548;2023-04-02T12:09:49;2.77;;;1.70;;
24637;SDS011;12773;50.162;8.548;2023-04-02T12:12:45;1.98;;;1.50;;
24637;SDS011;12773;50.162;8.548;2023-04-02T12:18:23;3.40;;;1.70;;
24637;SDS011;12773;50.162;8.548;2023-04-02T12:21:18;2.20;;;1.60;;
24637;SDS011;12773;50.162;8.548;2023-04-02T12:24:11;3.12;;;2.00;;
24637;SDS011;12773;50.162;8.548;2023-04-02T12:27:15;1.90;;;1.60;;
24637;SDS011;12773;50.162;8.548;2023-04-02T12:30:15;2.20;;;1.57;;
24637;SDS011;12773;50.162;8.548;2023-04-02T12:36:16;2.52;;;1.85;;
24637;SDS011;12773;50.162;8.548;2023-04-02T12:39:00;1.80;;;1.55;;
24637;SDS011;12773;50.162;8.548;2023-04-02T12:41:48;3.22;;;1.60;;
24637;SDS011;12773;50.162;8.548;2023-04-02T12:44:35;2.22;;;1.80;;
24637;SDS011;12773;50.162;8.548;2023-04-02T12:47:22;6.20;;;2.00;;
24637;SDS011;12773;50.162;8.548;2023-04-02T12:50:12;4.15;;;2.50;;
24637;SDS011;12773;50.162;8.548;2023-04-02T12:53:00;3.25;;;2.08;;
24637;SDS011;12773;50.162;8.548;2023-04-02T12:55:48;2.90;;;1.72;;
24637;SDS011;12773;50.162;8.548;2023-04-02T12:58:38;2.00;;;1.80;;
24637;SDS011;12773;50.162;8.548;2023-04-02T13:01:28;2.98;;;1.90;;
24637;SDS011;12773;50.162;8.548;2023-04-02T13:04:18;2.67;;;1.85;;
24637;SDS011;12773;50.162;8.548;2023-04-02T13:07:12;6.25;;;2.25;;
24637;SDS011;12773;50.162;8.548;2023-04-02T13:10:00;4.78;;;2.50;;
24637;SDS011;12773;50.162;8.548;2023-04-02T13:12:55;3.22;;;2.37;;
24637;SDS011;12773;50.162;8.548;2023-04-02T13:15:44;4.03;;;2.15;;
24637;SDS011;12773;50.162;8.548;2023-04-02T13:18:36;4.30;;;2.20;;
24637;SDS011;12773;50.162;8.548;2023-04-02T13:21:24;4.92;;;2.42;;
24637;SDS011;12773;50.162;8.548;2023-04-02T13:24:26;3.00;;;2.25;;
24637;SDS011;12773;50.162;8.548;2023-04-02T13:27:15;4.72;;;2.83;;
24637;SDS011;12773;50.162;8.548;2023-04-02T13:30:07;4.87;;;2.65;;
24637;SDS011;12773;50.162;8.548;2023-04-02T13:32:56;3.45;;;2.65;;
24637;SDS011;12773;50.162;8.548;2023-04-02T13:35:43;4.35;;;2.77;;
24637;SDS011;12773;50.162;8.548;2023-04-02T13:38:31;4.15;;;2.87;;
24637;SDS011;12773;50.162;8.548;2023-04-02T13:41:23;4.08;;;2.80;;
24637;SDS011;12773;50.162;8.548;2023-04-02T13:44:19;4.90;;;2.98;;
24637;SDS011;12773;50.162;8.548;2023-04-02T13:47:12;4.28;;;3.00;;
24637;SDS011;12773;50.162;8.548;2023-04-02T13:49:59;6.67;;;3.02;;
24637;SDS011;12773;50.162;8.548;2023-04-02T13:52:47;5.92;;;3.50;;
24637;SDS011;12773;50.162;8.548;2023-04-02T13:55:39;5.87;;;3.02;;
24637;SDS011;12773;50.162;8.548;2023-04-02T13:58:28;5.72;;;3.27;;
24637;SDS011;12773;50.162;8.548;2023-04-02T14:01:16;4.78;;;3.30;;
24637;SDS011;12773;50.162;8.548;2023-04-02T14:04:05;7.10;;;3.40;;
24637;SDS011;12773;50.162;8.548;2023-04-02T14:19:14;4.47;;;3.17;;
24637;SDS011;12773;50.162;8.548;2023-04-02T14:22:30;4.80;;;3.65;;
24637;SDS011;12773;50.162;8.548;2023-04-02T14:25:01;6.12;;;3.20;;
24637;SDS011;12773;50.162;8.548;2023-04-02T14:28:06;5.20;;;2.87;;
24637;SDS011;12773;50.162;8.548;2023-04-02T14:30:57;4.35;;;2.75;;
24637;SDS011;12773;50.162;8.548;2023-04-02T14:33:52;6.45;;;3.40;;
24637;SDS011;12773;50.162;8.548;2023-04-02T14:36:55;5.72;;;3.20;;
24637;SDS011;12773;50.162;8.548;2023-04-02T14:40:18;3.77;;;2.77;;
24637;SDS011;12773;50.162;8.548;2023-04-02T14:43:09;5.62;;;2.98;;
24637;SDS011;12773;50.162;8.548;2023-04-02T14:46:13;7.20;;;3.27;;
24637;SDS011;12773;50.162;8.548;2023-04-02T14:52:17;7.78;;;3.42;;
24637;SDS011;12773;50.162;8.548;2023-04-02T14:55:17;7.15;;;3.60;;
24637;SDS011;12773;50.162;8.548;2023-04-02T14:58:09;6.60;;;3.40;;
24637;SDS011;12773;50.162;8.548;2023-04-02T15:01:05;7.03;;;3.45;;
24637;SDS011;12773;50.162;8.548;2023-04-02T15:04:07;5.67;;;3.17;;
24637;SDS011;12773;50.162;8.548;2023-04-02T15:06:52;6.95;;;3.08;;
24637;SDS011;12773;50.162;8.548;2023-04-02T15:09:48;7.12;;;2.98;;
24637;SDS011;12773;50.162;8.548;2023-04-02T15:12:34;5.33;;;2.72;;
24637;SDS011;12773;50.162;8.548;2023-04-02T15:18:28;4.00;;;2.77;;
24637;SDS011;12773;50.162;8.548;2023-04-02T15:24:20;3.92;;;2.47;;
24637;SDS011;12773;50.162;8.548;2023-04-02T15:30:22;4.83;;;2.60;;
24637;SDS011;12773;50.162;8.548;2023-04-02T15:36:40;3.95;;;2.52;;
24637;SDS011;12773;50.162;8.548;2023-04-02T15:39:37;7.17;;;2.60;;
24637;SDS011;12773;50.162;8.548;2023-04-02T15:42:29;5.30;;;2.90;;
24637;SDS011;12773;50.162;8.548;2023-04-02T15:45:27;3.85;;;2.55;;
24637;SDS011;12773;50.162;8.548;2023-04-02T16:03:22;5.37;;;2.50;;
24637;SDS011;12773;50.162;8.548;2023-04-02T16:09:27;5.15;;;2.70;;
24637;SDS011;12773;50.162;8.548;2023-04-02T16:12:17;4.08;;;2.27;;
24637;SDS011;12773;50.162;8.548;2023-04-02T16:15:21;5.25;;;2.77;;
24637;SDS011;12773;50.162;8.548;2023-04-02T16:18:09;3.75;;;2.58;;
24637;SDS011;12773;50.162;8.548;2023-04-02T16:20:58;6.12;;;2.80;;
24637;SDS011;12773;50.162;8.548;2023-04-02T16:23:48;6.30;;;3.17;;
24637;SDS011;12773;50.162;8.548;2023-04-02T16:26:52;5.30;;;2.92;;
24637;SDS011;12773;50.162;8.548;2023-04-02T16:29:46;5.00;;;3.27;;
24637;SDS011;12773;50.162;8.548;2023-04-02T16:36:07;4.00;;;2.67;;
24637;SDS011;12773;50.162;8.548;2023-04-02T16:39:16;8.18;;;2.92;;
24637;SDS011;12773;50.162;8.548;2023-04-02T16:48:20;3.60;;;2.80;;
24637;SDS011;12773;50.162;8.548;2023-04-02T16:51:20;3.05;;;2.05;;
24637;SDS011;12773;50.162;8.548;2023-04-02T16:54:12;4.45;;;2.70;;
24637;SDS011;12773;50.162;8.548;2023-04-02T16:57:07;5.12;;;2.92;;
24637;SDS011;12773;50.162;8.548;2023-04-02T17:03:12;7.20;;;3.37;;
24637;SDS011;12773;50.162;8.548;2023-04-02T17:06:05;4.30;;;3.12;;
24637;SDS011;12773;50.162;8.548;2023-04-02T17:12:02;6.67;;;3.55;;
24637;SDS011;12773;50.162;8.548;2023-04-02T17:15:01;6.12;;;3.27;;
24637;SDS011;12773;50.162;8.548;2023-04-02T17:17:45;6.92;;;3.58;;
24637;SDS011;12773;50.162;8.548;2023-04-02T17:20:33;5.58;;;3.50;;
24637;SDS011;12773;50.162;8.548;2023-04-02T17:23:20;4.60;;;3.35;;
24637;SDS011;12773;50.162;8.548;2023-04-02T17:26:09;5.17;;;3.60;;
24637;SDS011;12773;50.162;8.548;2023-04-02T17:29:00;7.03;;;4.03;;
24637;SDS011;12773;50.162;8.548;2023-04-02T17:31:49;5.42;;;3.20;;
24637;SDS011;12773;50.162;8.548;2023-04-02T17:34:38;5.22;;;3.25;;
24637;SDS011;12773;50.162;8.548;2023-04-02T17:37:43;4.22;;;3.33;;
24637;SDS011;12773;50.162;8.548;2023-04-02T17:40:39;5.78;;;3.45;;
24637;SDS011;12773;50.162;8.548;2023-04-02T17:49:33;5.05;;;3.05;;
24637;SDS011;12773;50.162;8.548;2023-04-02T17:52:34;5.80;;;3.08;;
24637;SDS011;12773;50.162;8.548;2023-04-02T17:55:38;4.58;;;2.55;;
24637;SDS011;12773;50.162;8.548;2023-04-02T17:58:44;3.95;;;3.00;;
24637;SDS011;12773;50.162;8.548;2023-04-02T18:01:58;6.42;;;3.30;;
24637;SDS011;12773;50.162;8.548;2023-04-02T18:10:54;6.40;;;3.27;;
24637;SDS011;12773;50.162;8.548;2023-04-02T18:13:41;6.00;;;3.85;;
24637;SDS011;12773;50.162;8.548;2023-04-02T18:16:40;4.45;;;2.90;;
24637;SDS011;12773;50.162;8.548;2023-04-02T18:19:49;4.72;;;3.00;;
24637;SDS011;12773;50.162;8.548;2023-04-02T18:22:42;5.60;;;3.50;;
24637;SDS011;12773;50.162;8.548;2023-04-02T18:25:49;6.35;;;3.42;;
24637;SDS011;12773;50.162;8.548;2023-04-02T18:34:57;4.17;;;3.33;;
24637;SDS011;12773;50.162;8.548;2023-04-02T18:50:09;5.67;;;3.05;;
24637;SDS011;12773;50.162;8.548;2023-04-02T18:53:10;5.53;;;2.98;;
24637;SDS011;12773;50.162;8.548;2023-04-02T18:56:03;4.90;;;2.33;;
24637;SDS011;12773;50.162;8.548;2023-04-02T18:59:13;5.25;;;2.70;;
24637;SDS011;12773;50.162;8.548;2023-04-02T19:02:20;4.58;;;2.20;;
24637;SDS011;12773;50.162;8.548;2023-04-02T19:08:23;3.37;;;2.30;;
24637;SDS011;12773;50.162;8.548;2023-04-02T19:11:20;4.70;;;2.77;;
24637;SDS011;12773;50.162;8.548;2023-04-02T19:14:11;2.90;;;2.20;;
24637;SDS011;12773;50.162;8.548;2023-04-02T19:17:01;4.12;;;2.12;;
24637;SDS011;12773;50.162;8.548;2023-04-02T19:23:23;5.33;;;2.60;;
24637;SDS011;12773;50.162;8.548;2023-04-02T19:26:20;4.40;;;2.10;;
24637;SDS011;12773;50.162;8.548;2023-04-02T19:32:44;5.12;;;2.25;;
24637;SDS011;12773;50.162;8.548;2023-04-02T19:35:38;4.20;;;1.92;;
24637;SDS011;12773;50.162;8.548;2023-04-02T19:38:48;7.97;;;2.10;;
24637;SDS011;12773;50.162;8.548;2023-04-02T19:41:49;4.85;;;1.77;;
24637;SDS011;12773;50.162;8.548;2023-04-02T19:44:33;2.67;;;1.75;;
24637;SDS011;12773;50.162;8.548;2023-04-02T19:47:23;3.67;;;2.20;;
24637;SDS011;12773;50.162;8.548;2023-04-02T19:50:11;7.72;;;2.22;;
24637;SDS011;12773;50.162;8.548;2023-04-02T19:52:58;3.83;;;2.25;;
24637;SDS011;12773;50.162;8.548;2023-04-02T19:55:45;4.45;;;2.17;;
24637;SDS011;12773;50.162;8.548;2023-04-02T19:58:33;3.67;;;2.10;;
24637;SDS011;12773;50.162;8.548;2023-04-02T20:01:21;4.80;;;2.02;;
24637;SDS011;12773;50.162;8.548;2023-04-02T20:04:09;3.60;;;2.10;;
24637;SDS011;12773;50.162;8.548;2023-04-02T20:06:57;3.98;;;2.00;;
24637;SDS011;12773;50.162;8.548;2023-04-02T20:09:44;3.12;;;1.50;;
24637;SDS011;12773;50.162;8.548;2023-04-02T20:12:31;3.62;;;1.80;;
24637;SDS011;12773;50.162;8.548;2023-04-02T20:15:18;4.22;;;1.80;;
24637;SDS011;12773;50.162;8.548;2023-04-02T20:18:05;4.40;;;1.82;;
24637;SDS011;12773;50.162;8.548;2023-04-02T20:20:55;3.75;;;1.67;;
24637;SDS011;12773;50.162;8.548;2023-04-02T20:23:43;4.08;;;1.80;;
24637;SDS011;12773;50.162;8.548;2023-04-02T20:26:31;4.15;;;1.90;;
24637;SDS011;12773;50.162;8.548;2023-04-02T20:29:19;3.87;;;1.72;;
24637;SDS011;12773;50.162;8.548;2023-04-02T20:32:09;3.87;;;1.75;;